createdAt,value
2023-04-19T00:00:50.534Z,77.34
2023-04-19T00:01:50.547Z,77.45
2023-04-19T00:02:50.669Z,77.55
2023-04-19T00:03:50.628Z,77.65
2023-04-19T00:04:50.543Z,77.55
2023-04-19T00:05:50.492Z,77.55
2023-04-19T00:06:50.484Z,77.55
2023-04-19T00:07:50.421Z,77.65
2023-04-19T00:08:50.479Z,77.65
2023-04-19T00:09:50.449Z,77.55
2023-04-19T00:10:50.450Z,77.55
2023-04-19T00:11:50.412Z,77.45
2023-04-19T00:12:50.366Z,77.45
2023-04-19T00:13:50.378Z,77.55
2023-04-19T00:14:50.343Z,77.55
2023-04-19T00:15:50.346Z,77.55
2023-04-19T00:16:50.387Z,77.45
2023-04-19T00:17:50.357Z,77.55
2023-04-19T00:18:50.325Z,77.45
2023-04-19T00:19:50.268Z,77.65
2023-04-19T00:20:50.297Z,77.65
2023-04-19T00:21:50.306Z,77.55
2023-04-19T00:22:50.266Z,77.75
2023-04-19T00:23:50.208Z,77.55
2023-04-19T00:24:50.204Z,77.55
2023-04-19T00:25:50.196Z,77.65
2023-04-19T00:26:50.205Z,77.75
2023-04-19T00:27:50.213Z,77.55
2023-04-19T00:28:50.158Z,77.55
2023-04-19T00:29:50.142Z,77.55
2023-04-19T00:30:50.228Z,77.65
2023-04-19T00:31:50.129Z,77.65
2023-04-19T00:32:50.173Z,77.55
2023-04-19T00:33:50.117Z,77.65
2023-04-19T00:34:50.111Z,77.55
2023-04-19T00:35:50.161Z,77.55
2023-04-19T00:36:50.082Z,77.55
2023-04-19T00:37:50.031Z,77.65
2023-04-19T00:38:50.060Z,77.65
2023-04-19T00:39:50.030Z,77.55
2023-04-19T00:40:50.054Z,77.65
2023-04-19T00:41:49.980Z,77.45
2023-04-19T00:42:49.971Z,77.25
2023-04-19T00:43:49.946Z,77.34
2023-04-19T00:44:49.965Z,77.45
2023-04-19T00:45:50.024Z,77.55
2023-04-19T00:46:49.955Z,77.55
2023-04-19T00:47:49.951Z,77.65
2023-04-19T00:48:49.954Z,77.65
2023-04-19T00:49:49.880Z,77.65
2023-04-19T00:50:49.902Z,77.65
2023-04-19T00:51:49.842Z,77.86
2023-04-19T00:52:49.848Z,77.86
2023-04-19T00:53:49.832Z,77.86
2023-04-19T00:54:49.841Z,77.89
2023-04-19T00:55:49.846Z,78.09
2023-04-19T00:56:49.811Z,78.20
2023-04-19T00:57:49.786Z,78.09
2023-04-19T00:58:49.825Z,78.20
2023-04-19T00:59:49.764Z,78.30
2023-04-19T01:00:49.826Z,78.47
2023-04-19T01:01:49.763Z,78.57
2023-04-19T01:02:49.917Z,78.37
2023-04-19T01:03:49.820Z,78.47
2023-04-19T01:04:49.710Z,78.37
2023-04-19T01:05:49.737Z,78.41
2023-04-19T01:06:49.682Z,78.50
2023-04-19T01:07:49.635Z,78.41
2023-04-19T01:08:49.631Z,78.37
2023-04-19T01:09:49.625Z,78.37
2023-04-19T01:10:49.661Z,78.37
2023-04-19T01:11:49.578Z,78.37
2023-04-19T01:12:49.581Z,78.47
2023-04-19T01:13:49.559Z,78.61
2023-04-19T01:14:49.549Z,78.50
2023-04-19T01:15:49.583Z,78.61
2023-04-19T01:16:49.556Z,78.71
2023-04-19T01:17:49.582Z,78.71
2023-04-19T01:18:49.514Z,78.71
2023-04-19T01:19:49.498Z,78.81
2023-04-19T01:20:49.524Z,78.91
2023-04-19T01:21:49.502Z,79.02
2023-04-19T01:22:49.474Z,79.12
2023-04-19T01:23:49.415Z,79.12
2023-04-19T01:24:49.454Z,79.02
2023-04-19T01:25:49.416Z,79.12
2023-04-19T01:26:49.467Z,79.02
2023-04-19T01:27:49.408Z,79.12
2023-04-19T01:28:49.403Z,79.22
2023-04-19T01:29:49.366Z,79.12
2023-04-19T01:30:49.421Z,79.12
2023-04-19T01:31:49.401Z,79.12
2023-04-19T01:32:49.456Z,79.22
2023-04-19T01:33:49.302Z,79.22
2023-04-19T01:34:49.291Z,79.12
2023-04-19T01:35:49.309Z,79.02
2023-04-19T01:36:49.290Z,79.02
2023-04-19T01:37:49.239Z,79.12
2023-04-19T01:38:49.247Z,79.22
2023-04-19T01:39:49.221Z,79.32
2023-04-19T01:40:49.298Z,79.32
2023-04-19T01:41:49.209Z,79.32
2023-04-19T01:42:49.213Z,79.22
2023-04-19T01:43:49.195Z,79.12
2023-04-19T01:44:49.182Z,78.91
2023-04-19T01:45:49.200Z,78.91
2023-04-19T01:46:49.194Z,79.02
2023-04-19T01:47:49.185Z,79.22
2023-04-19T01:48:49.142Z,79.12
2023-04-19T01:49:49.102Z,79.16
2023-04-19T01:50:49.118Z,79.22
2023-04-19T01:51:49.098Z,79.25
2023-04-19T01:52:49.071Z,79.25
2023-04-19T01:53:49.023Z,79.25
2023-04-19T01:54:49.052Z,79.25
2023-04-19T01:55:49.049Z,79.25
2023-04-19T01:56:49.016Z,79.25
2023-04-19T01:57:48.991Z,79.25
2023-04-19T01:58:48.961Z,79.36
2023-04-19T01:59:48.997Z,79.57
2023-04-19T02:00:49.064Z,79.66
2023-04-19T02:01:48.944Z,79.66
2023-04-19T02:02:49.090Z,79.77
2023-04-19T02:03:49.114Z,79.77
2023-04-19T02:04:48.880Z,79.77
2023-04-19T02:05:48.903Z,79.77
2023-04-19T02:06:48.875Z,79.97
2023-04-19T02:07:48.860Z,79.97
2023-04-19T02:08:48.851Z,79.97
2023-04-19T02:09:48.835Z,80.07
2023-04-19T02:10:48.880Z,80.07
2023-04-19T02:11:48.810Z,79.97
2023-04-19T02:12:48.811Z,80.07
2023-04-19T02:13:48.822Z,80.07
2023-04-19T02:14:48.787Z,80.18
2023-04-19T02:15:48.765Z,80.07
2023-04-19T02:16:48.798Z,79.87
2023-04-19T02:17:48.781Z,80.07
2023-04-19T02:18:48.713Z,80.07
2023-04-19T02:19:48.715Z,80.18
2023-04-19T02:20:48.725Z,80.28
2023-04-19T02:21:48.688Z,80.18
2023-04-19T02:22:48.649Z,80.28
2023-04-19T02:23:48.675Z,80.28
2023-04-19T02:24:48.636Z,80.38
2023-04-19T02:25:48.672Z,80.28
2023-04-19T02:26:48.618Z,80.28
2023-04-19T02:27:48.630Z,80.28
2023-04-19T02:28:48.611Z,80.18
2023-04-19T02:29:48.557Z,80.28
2023-04-19T02:30:48.605Z,80.38
2023-04-19T02:31:48.576Z,80.38
2023-04-19T02:32:48.609Z,80.48
2023-04-19T02:33:48.555Z,80.48
2023-04-19T02:34:48.510Z,80.48
2023-04-19T02:35:48.517Z,80.58
2023-04-19T02:36:48.504Z,80.69
2023-04-19T02:37:48.516Z,80.69
2023-04-19T02:38:48.473Z,80.69
2023-04-19T02:39:48.460Z,80.58
2023-04-19T02:40:48.447Z,80.69
2023-04-19T02:41:48.430Z,80.69
2023-04-19T02:42:48.392Z,80.79
2023-04-19T02:43:48.410Z,80.79
2023-04-19T02:44:48.373Z,80.89
2023-04-19T02:45:48.439Z,80.89
2023-04-19T02:46:48.350Z,80.99
2023-04-19T02:47:48.400Z,81.10
2023-04-19T02:48:48.328Z,80.99
2023-04-19T02:49:48.319Z,81.20
2023-04-19T02:50:48.280Z,81.30
2023-04-19T02:51:48.303Z,81.40
2023-04-19T02:52:48.355Z,81.51
2023-04-19T02:53:48.286Z,81.51
2023-04-19T02:54:48.231Z,81.51
2023-04-19T02:55:48.262Z,81.60
2023-04-19T02:56:48.232Z,81.51
2023-04-19T02:57:48.211Z,81.51
2023-04-19T02:58:48.184Z,81.60
2023-04-19T02:59:48.178Z,81.51
2023-04-19T03:00:48.144Z,81.60
2023-04-19T03:01:48.173Z,81.60
2023-04-19T03:02:48.327Z,81.71
2023-04-19T03:03:48.251Z,81.71
2023-04-19T03:04:48.109Z,81.71
2023-04-19T03:05:48.126Z,81.81
2023-04-19T03:06:48.055Z,81.91
2023-04-19T03:07:48.120Z,82.01
2023-04-19T03:08:48.052Z,81.91
2023-04-19T03:09:48.060Z,82.01
2023-04-19T03:10:48.041Z,82.12
2023-04-19T03:11:48.039Z,82.12
2023-04-19T03:12:48.081Z,82.22
2023-04-19T03:13:48.004Z,82.32
2023-04-19T03:14:48.010Z,82.32
2023-04-19T03:15:48.027Z,82.32
2023-04-19T03:16:47.941Z,82.22
2023-04-19T03:17:48.070Z,82.32
2023-04-19T03:18:49.436Z,82.42
2023-04-19T03:19:47.941Z,82.42
2023-04-19T03:20:47.878Z,82.53
2023-04-19T03:21:47.885Z,82.42
2023-04-19T03:22:47.905Z,82.53
2023-04-19T03:23:47.882Z,82.42
2023-04-19T03:24:47.850Z,82.63
2023-04-19T03:25:47.966Z,82.73
2023-04-19T03:26:47.795Z,82.83
2023-04-19T03:27:47.823Z,82.83
2023-04-19T03:28:47.786Z,83.04
2023-04-19T03:29:48.986Z,83.04
2023-04-19T03:30:47.731Z,83.14
2023-04-19T03:31:47.839Z,83.24
2023-04-19T03:32:47.777Z,83.44
2023-04-19T03:33:47.785Z,83.44
2023-04-19T03:34:47.720Z,83.44
2023-04-19T03:35:47.782Z,83.44
2023-04-19T03:36:47.704Z,83.54
2023-04-19T03:37:47.668Z,83.44
2023-04-19T03:38:47.648Z,83.44
2023-04-19T03:39:47.670Z,83.65
2023-04-19T03:40:47.630Z,83.65
2023-04-19T03:41:47.631Z,83.75
2023-04-19T03:42:47.608Z,83.54
2023-04-19T03:43:47.641Z,83.54
2023-04-19T03:44:47.607Z,83.75
2023-04-19T03:45:47.599Z,83.85
2023-04-19T03:46:47.682Z,83.95
2023-04-19T03:47:47.590Z,83.85
2023-04-19T03:48:47.554Z,83.85
2023-04-19T03:49:47.504Z,83.65
2023-04-19T03:50:47.504Z,83.75
2023-04-19T03:51:47.477Z,83.75
2023-04-19T03:52:47.437Z,83.75
2023-04-19T03:53:47.516Z,83.85
2023-04-19T03:54:47.425Z,83.85
2023-04-19T03:55:47.447Z,83.85
2023-04-19T03:56:47.393Z,83.75
2023-04-19T03:57:47.422Z,83.85
2023-04-19T03:58:47.410Z,83.75
2023-04-19T03:59:47.358Z,83.65
2023-04-19T04:00:47.371Z,83.75
2023-04-19T04:01:47.366Z,83.85
2023-04-19T04:02:47.553Z,83.75
2023-04-19T04:03:47.730Z,83.75
2023-04-19T04:04:47.436Z,83.85
2023-04-19T04:05:47.307Z,83.85
2023-04-19T04:06:47.299Z,83.85
2023-04-19T04:07:47.300Z,83.95
2023-04-19T04:08:47.228Z,83.95
2023-04-19T04:09:47.283Z,83.95
2023-04-19T04:10:47.201Z,83.95
2023-04-19T04:11:47.223Z,83.85
2023-04-19T04:12:47.207Z,83.85
2023-04-19T04:13:47.191Z,83.95
2023-04-19T04:14:47.147Z,83.95
2023-04-19T04:15:47.239Z,83.95
2023-04-19T04:16:47.144Z,83.85
2023-04-19T04:17:47.238Z,83.79
2023-04-19T04:18:47.135Z,83.75
2023-04-19T04:19:47.135Z,83.75
2023-04-19T04:20:47.099Z,83.75
2023-04-19T04:21:47.065Z,83.75
2023-04-19T04:22:47.081Z,83.75
2023-04-19T04:23:47.113Z,83.65
2023-04-19T04:24:47.016Z,83.54
2023-04-19T04:25:47.020Z,83.54
2023-04-19T04:26:47.062Z,83.54
2023-04-19T04:27:46.988Z,83.44
2023-04-19T04:28:47.026Z,83.54
2023-04-19T04:29:46.982Z,83.65
2023-04-19T04:30:46.950Z,83.75
2023-04-19T04:31:47.023Z,83.75
2023-04-19T04:32:47.006Z,83.75
2023-04-19T04:33:46.962Z,83.75
2023-04-19T04:34:46.902Z,83.75
2023-04-19T04:35:46.915Z,83.75
2023-04-19T04:36:46.883Z,83.65
2023-04-19T04:37:46.899Z,83.44
2023-04-19T04:38:46.898Z,83.54
2023-04-19T04:39:46.891Z,83.44
2023-04-19T04:40:46.856Z,83.54
2023-04-19T04:41:46.840Z,83.65
2023-04-19T04:42:46.845Z,83.85
2023-04-19T04:43:46.836Z,83.85
2023-04-19T04:44:46.808Z,83.75
2023-04-19T04:45:46.791Z,83.65
2023-04-19T04:46:46.789Z,83.65
2023-04-19T04:47:46.798Z,83.65
2023-04-19T04:48:46.779Z,83.54
2023-04-19T04:49:46.749Z,83.44
2023-04-19T04:50:46.695Z,83.44
2023-04-19T04:51:46.732Z,83.54
2023-04-19T04:52:46.703Z,83.44
2023-04-19T04:53:46.688Z,83.44
2023-04-19T04:54:46.689Z,83.34
2023-04-19T04:55:46.654Z,83.44
2023-04-19T04:56:46.670Z,83.44
2023-04-19T04:57:46.647Z,83.44
2023-04-19T04:58:46.600Z,83.24
2023-04-19T04:59:46.633Z,83.24
2023-04-19T05:00:46.591Z,83.14
2023-04-19T05:01:46.724Z,83.14
2023-04-19T05:02:46.625Z,83.24
2023-04-19T05:03:46.585Z,83.14
2023-04-19T05:04:46.662Z,83.04
2023-04-19T05:05:46.548Z,83.04
2023-04-19T05:06:46.494Z,83.14
2023-04-19T05:07:46.580Z,83.14
2023-04-19T05:08:46.468Z,83.34
2023-04-19T05:09:46.489Z,83.44
2023-04-19T05:10:46.433Z,83.44
2023-04-19T05:11:46.469Z,83.34
2023-04-19T05:12:46.425Z,83.34
2023-04-19T05:13:46.437Z,83.34
2023-04-19T05:14:46.374Z,83.24
2023-04-19T05:15:46.384Z,83.14
2023-04-19T05:16:46.428Z,83.04
2023-04-19T05:17:46.422Z,82.83
2023-04-19T05:18:46.365Z,82.53
2023-04-19T05:19:46.353Z,82.83
2023-04-19T05:20:46.299Z,82.73
2023-04-19T05:21:46.292Z,82.53
2023-04-19T05:22:46.305Z,82.22
2023-04-19T05:23:46.361Z,82.12
2023-04-19T05:24:46.258Z,82.12
2023-04-19T05:25:46.236Z,82.22
2023-04-19T05:26:46.350Z,81.91
2023-04-19T05:27:46.238Z,81.81
2023-04-19T05:28:46.219Z,81.81
2023-04-19T05:29:46.224Z,81.81
2023-04-19T05:30:46.218Z,81.71
2023-04-19T05:31:46.310Z,81.71
2023-04-19T05:32:46.264Z,81.51
2023-04-19T05:33:46.140Z,81.40
2023-04-19T05:34:46.160Z,81.40
2023-04-19T05:35:46.130Z,81.30
2023-04-19T05:36:46.092Z,81.40
2023-04-19T05:37:46.083Z,81.30
2023-04-19T05:38:46.116Z,80.99
2023-04-19T05:39:46.077Z,81.10
2023-04-19T05:40:46.040Z,80.99
2023-04-19T05:41:46.060Z,80.79
2023-04-19T05:42:46.031Z,80.48
2023-04-19T05:43:46.008Z,80.28
2023-04-19T05:44:46.036Z,79.80
2023-04-19T05:45:46.006Z,79.29
2023-04-19T05:46:45.988Z,79.39
2023-04-19T05:47:45.988Z,79.50
2023-04-19T05:48:45.926Z,79.60
2023-04-19T05:49:45.972Z,79.70
2023-04-19T05:50:45.923Z,79.70
2023-04-19T05:51:46.008Z,79.60
2023-04-19T05:52:45.896Z,79.39
2023-04-19T05:53:45.891Z,79.09
2023-04-19T05:54:45.870Z,78.78
2023-04-19T05:55:45.936Z,78.88
2023-04-19T05:56:45.820Z,78.78
2023-04-19T05:57:45.826Z,78.38
2023-04-19T05:58:45.853Z,78.17
2023-04-19T05:59:45.818Z,77.66
2023-04-19T06:00:45.783Z,77.56
2023-04-19T06:01:45.829Z,77.15
2023-04-19T06:02:45.897Z,76.84
2023-04-19T06:03:45.867Z,77.04
2023-04-19T06:04:45.948Z,76.74
2023-04-19T06:05:45.868Z,76.84
2023-04-19T06:06:45.694Z,76.74
2023-04-19T06:07:54.650Z,76.64
2023-04-19T06:08:46.668Z,76.33
2023-04-19T06:09:45.782Z,76.43
2023-04-19T06:10:56.971Z,76.43
2023-04-19T06:11:50.526Z,75.71
2023-04-19T06:12:46.664Z,76.03
2023-04-19T06:13:45.651Z,76.23
2023-04-19T06:14:45.645Z,76.23
2023-04-19T06:15:45.609Z,76.23
2023-04-19T06:16:45.589Z,76.23
2023-04-19T06:17:45.862Z,76.03
2023-04-19T06:18:45.578Z,76.12
2023-04-19T06:19:45.545Z,76.12
2023-04-19T06:20:45.536Z,75.92
2023-04-19T06:21:45.521Z,76.03
2023-04-19T06:22:45.495Z,76.12
2023-04-19T06:23:45.506Z,75.92
2023-04-19T06:24:45.496Z,75.51
2023-04-19T06:25:45.487Z,75.62
2023-04-19T06:26:45.507Z,75.62
2023-04-19T06:27:45.444Z,75.37
2023-04-19T06:28:45.414Z,75.48
2023-04-19T06:29:45.440Z,75.48
2023-04-19T06:30:45.427Z,75.37
2023-04-19T06:31:45.429Z,75.07
2023-04-19T06:32:45.422Z,74.87
2023-04-19T06:33:45.371Z,74.97
2023-04-19T06:34:45.378Z,75.27
2023-04-19T06:35:45.334Z,75.48
2023-04-19T06:36:45.314Z,75.48
2023-04-19T06:37:45.308Z,75.37
2023-04-19T06:38:45.289Z,74.97
2023-04-19T06:39:45.312Z,74.87
2023-04-19T06:40:45.280Z,74.73
2023-04-19T06:41:45.250Z,74.42
2023-04-19T06:42:45.291Z,74.42
2023-04-19T06:43:45.235Z,74.11
2023-04-19T06:44:45.266Z,74.52
2023-04-19T06:45:45.201Z,74.32
2023-04-19T06:46:45.175Z,73.71
2023-04-19T06:47:45.176Z,73.47
2023-04-19T06:48:45.211Z,73.57
2023-04-19T06:49:45.179Z,73.57
2023-04-19T06:50:45.148Z,73.47
2023-04-19T06:51:45.102Z,73.67
2023-04-19T06:52:45.121Z,74.08
2023-04-19T06:53:45.120Z,73.57
2023-04-19T06:54:45.080Z,73.06
2023-04-19T06:55:45.118Z,73.36
2023-04-19T06:56:45.113Z,73.36
2023-04-19T06:57:45.022Z,73.47
2023-04-19T06:58:45.049Z,72.65
2023-04-19T06:59:45.007Z,72.24
2023-04-19T07:00:45.052Z,72.00
2023-04-19T07:01:45.150Z,71.50
2023-04-19T07:02:45.067Z,71.80
2023-04-19T07:03:45.223Z,71.09
2023-04-19T07:04:45.040Z,69.76
2023-04-19T07:05:44.979Z,69.05
2023-04-19T07:06:44.970Z,68.64
2023-04-19T07:07:44.913Z,68.54
2023-04-19T07:08:50.053Z,68.91
2023-04-19T07:09:45.907Z,68.71
2023-04-19T07:10:44.936Z,68.71
2023-04-19T07:11:44.859Z,68.71
2023-04-19T07:12:44.857Z,69.22
2023-04-19T07:13:44.852Z,69.42
2023-04-19T07:14:44.814Z,69.59
2023-04-19T07:15:44.901Z,69.19
2023-04-19T07:16:44.816Z,68.78
2023-04-19T07:17:44.835Z,67.63
2023-04-19T07:18:44.761Z,67.32
2023-04-19T07:19:44.750Z,67.63
2023-04-19T07:20:44.779Z,68.13
2023-04-19T07:21:44.728Z,67.83
2023-04-19T07:22:44.701Z,67.32
2023-04-19T07:23:44.740Z,67.02
2023-04-19T07:24:44.684Z,66.82
2023-04-19T07:25:44.713Z,66.61
2023-04-19T07:26:44.678Z,66.61
2023-04-19T07:27:44.920Z,66.58
2023-04-19T07:28:44.648Z,66.68
2023-04-19T07:29:44.600Z,66.07
2023-04-19T07:30:44.642Z,66.17
2023-04-19T07:31:44.659Z,65.86
2023-04-19T07:32:44.826Z,66.27
2023-04-19T07:33:44.569Z,66.78
2023-04-19T07:34:44.588Z,66.27
2023-04-19T07:35:44.607Z,66.17
2023-04-19T07:36:44.562Z,66.07
2023-04-19T07:37:44.538Z,66.27
2023-04-19T07:38:44.541Z,66.27
2023-04-19T07:39:44.496Z,66.68
2023-04-19T07:40:44.508Z,66.78
2023-04-19T07:41:44.453Z,66.38
2023-04-19T07:42:44.461Z,65.86
2023-04-19T07:43:44.410Z,65.86
2023-04-19T07:44:44.470Z,66.14
2023-04-19T07:45:44.427Z,65.94
2023-04-19T07:46:44.476Z,65.94
2023-04-19T07:47:44.401Z,65.25
2023-04-19T07:48:44.419Z,64.84
2023-04-19T07:49:44.338Z,65.16
2023-04-19T07:50:44.427Z,64.84
2023-04-19T07:51:44.317Z,64.57
2023-04-19T07:52:44.313Z,64.98
2023-04-19T07:53:44.327Z,64.78
2023-04-19T07:54:44.293Z,64.87
2023-04-19T07:55:44.300Z,65.05
2023-04-19T07:56:44.315Z,64.95
2023-04-19T07:57:44.258Z,64.75
2023-04-19T07:58:46.703Z,64.51
2023-04-19T07:59:44.227Z,64.92
2023-04-19T08:00:44.322Z,64.61
2023-04-19T08:01:44.395Z,64.89
2023-04-19T08:02:44.328Z,65.30
2023-04-19T08:03:44.306Z,64.58
2023-04-19T08:04:44.470Z,63.67
2023-04-19T08:05:44.210Z,63.06
2023-04-19T08:06:44.213Z,63.26
2023-04-19T08:07:44.138Z,63.67
2023-04-19T08:08:44.135Z,63.26
2023-04-19T08:09:44.130Z,62.72
2023-04-19T08:10:44.059Z,63.13
2023-04-19T08:11:44.054Z,63.23
2023-04-19T08:12:50.704Z,63.13
2023-04-19T08:13:55.107Z,62.21
2023-04-19T08:14:59.122Z,62.72
2023-04-19T08:17:19.077Z,62.62
2023-04-19T08:17:45.197Z,62.93
2023-04-19T08:18:43.966Z,62.52
2023-04-19T08:19:43.968Z,62.21
2023-04-19T08:20:43.980Z,62.01
2023-04-19T08:21:43.960Z,62.32
2023-04-19T08:22:43.983Z,62.52
2023-04-19T08:23:48.236Z,60.38
2023-04-19T08:24:43.974Z,60.59
2023-04-19T08:25:43.894Z,59.37
2023-04-19T08:26:43.859Z,59.67
2023-04-19T08:27:43.884Z,59.16
2023-04-19T08:28:43.835Z,59.54
2023-04-19T08:29:43.843Z,59.54
2023-04-19T08:30:43.875Z,59.24
2023-04-19T08:31:43.835Z,59.03
2023-04-19T08:32:43.968Z,58.94
2023-04-19T08:33:44.585Z,59.54
2023-04-19T08:34:43.814Z,59.03
2023-04-19T08:35:43.755Z,58.42
2023-04-19T08:36:55.736Z,57.41
2023-04-19T08:37:44.732Z,57.74
2023-04-19T08:38:46.679Z,58.04
2023-04-19T08:39:44.685Z,58.86
2023-04-19T08:40:43.717Z,59.14
2023-04-19T08:41:44.872Z,59.24
2023-04-19T08:42:43.758Z,58.53
2023-04-19T08:43:43.676Z,58.29
2023-04-19T08:45:05.736Z,57.68
2023-04-19T08:45:44.681Z,57.28
2023-04-19T08:46:43.658Z,56.49
2023-04-19T08:48:43.691Z,57.59
2023-04-19T08:49:43.942Z,56.57
2023-04-19T08:51:00.717Z,56.26
2023-04-19T08:51:44.545Z,56.47
2023-04-19T08:52:54.202Z,56.04
2023-04-19T08:53:44.507Z,55.53
2023-04-19T08:54:43.490Z,55.22
2023-04-19T08:55:58.438Z,55.22
2023-04-19T08:56:44.465Z,55.63
2023-04-19T08:57:43.529Z,54.82
2023-04-19T08:58:57.822Z,54.92
2023-04-19T08:59:44.418Z,54.51
2023-04-19T09:00:43.452Z,55.53
2023-04-19T09:01:44.751Z,53.88
2023-04-19T09:02:43.736Z,53.70
2023-04-19T09:03:58.343Z,54.08
2023-04-19T09:04:44.490Z,54.08
2023-04-19T09:05:43.599Z,53.98
2023-04-19T09:06:43.675Z,53.98
2023-04-19T09:07:43.336Z,53.60
2023-04-19T09:08:43.323Z,54.18
2023-04-19T09:09:59.686Z,54.11
2023-04-19T09:10:44.282Z,54.00
2023-04-19T09:11:43.266Z,53.37
2023-04-19T09:12:43.280Z,52.89
2023-04-19T09:13:43.282Z,52.79
2023-04-19T09:14:50.320Z,52.69
2023-04-19T09:15:44.218Z,53.50
2023-04-19T09:16:43.222Z,52.69
2023-04-19T09:17:43.283Z,53.80
2023-04-19T09:18:56.300Z,53.80
2023-04-19T09:19:44.195Z,53.60
2023-04-19T09:20:43.219Z,53.58
2023-04-19T09:21:43.131Z,54.28
2023-04-19T09:22:43.182Z,53.67
2023-04-19T09:23:43.164Z,52.46
2023-04-19T09:26:09.381Z,52.05
2023-04-19T09:26:44.067Z,52.76
2023-04-19T09:27:43.069Z,51.24
2023-04-19T09:28:43.072Z,51.16
2023-04-19T09:29:43.013Z,51.16
2023-04-19T09:30:55.136Z,51.46
2023-04-19T09:31:51.397Z,50.68
2023-04-19T09:32:44.138Z,51.90
2023-04-19T09:33:43.022Z,52.79
2023-04-19T09:34:43.000Z,52.48
2023-04-19T09:35:42.938Z,53.06
2023-04-19T09:36:42.942Z,52.25
2023-04-19T09:38:42.948Z,51.54
2023-04-19T09:39:42.886Z,51.52
2023-04-19T09:40:42.893Z,51.72
2023-04-19T09:41:43.689Z,51.32
2023-04-19T09:43:58.971Z,50.81
2023-04-19T09:45:16.523Z,50.91
2023-04-19T09:45:43.803Z,52.03
2023-04-19T09:46:42.911Z,51.52
2023-04-19T09:47:42.878Z,51.42
2023-04-19T09:48:42.786Z,51.32
2023-04-19T09:49:48.862Z,52.23
2023-04-19T09:50:54.942Z,50.81
2023-04-19T09:51:43.746Z,50.51
2023-04-19T09:52:42.784Z,49.98
2023-04-19T09:53:42.743Z,49.37
2023-04-19T09:54:42.786Z,48.18
2023-04-19T09:55:57.234Z,48.78
2023-04-19T09:56:43.703Z,48.30
2023-04-19T09:57:42.684Z,49.52
2023-04-19T09:58:51.324Z,50.43
2023-04-19T09:59:43.672Z,51.52
2023-04-19T10:00:48.860Z,51.21
2023-04-19T10:01:43.652Z,50.10
2023-04-19T10:02:42.753Z,50.60
2023-04-19T10:03:42.710Z,50.99
2023-04-19T10:05:02.838Z,50.00
2023-04-19T10:05:43.784Z,50.10
2023-04-19T10:06:58.826Z,50.71
2023-04-19T10:07:43.595Z,50.00
2023-04-19T10:08:42.545Z,50.10
2023-04-19T10:09:49.717Z,50.71
2023-04-19T10:10:45.580Z,51.19
2023-04-19T10:11:44.762Z,51.39
2023-04-19T10:13:42.510Z,49.16
2023-04-19T10:14:42.470Z,48.76
2023-04-19T10:15:50.605Z,49.16
2023-04-19T10:16:43.533Z,49.57
2023-04-19T10:17:42.414Z,48.25
2023-04-19T10:18:42.387Z,48.58
2023-04-19T10:19:42.410Z,48.66
2023-04-19T10:20:42.420Z,48.86
2023-04-19T10:21:42.373Z,49.08
2023-04-19T10:22:42.362Z,49.98
2023-04-19T10:23:42.360Z,48.86
2023-04-19T10:24:44.349Z,49.19
2023-04-19T10:25:42.320Z,49.57
2023-04-19T10:26:42.304Z,50.38
2023-04-19T10:27:42.277Z,50.08
2023-04-19T10:28:42.338Z,49.87
2023-04-19T10:29:42.248Z,49.16
2023-04-19T10:30:42.235Z,49.27
2023-04-19T10:31:42.272Z,48.46
2023-04-19T10:32:42.325Z,49.04
2023-04-19T10:33:42.292Z,48.15
2023-04-19T10:34:42.210Z,47.14
2023-04-19T10:35:42.210Z,47.14
2023-04-19T10:36:42.153Z,48.15
2023-04-19T10:37:42.156Z,47.34
2023-04-19T10:38:42.135Z,46.73
2023-04-19T10:39:42.154Z,46.94
2023-04-19T10:40:42.129Z,47.03
2023-04-19T10:41:42.122Z,45.84
2023-04-19T10:42:42.108Z,46.04
2023-04-19T10:43:42.103Z,46.65
2023-04-19T10:44:42.045Z,46.57
2023-04-19T10:45:42.151Z,46.65
2023-04-19T10:46:42.033Z,46.95
2023-04-19T10:47:42.105Z,47.06
2023-04-19T10:48:42.021Z,46.75
2023-04-19T10:49:42.007Z,46.35
2023-04-19T10:50:41.986Z,46.65
2023-04-19T10:51:41.987Z,47.03
2023-04-19T10:52:41.944Z,47.54
2023-04-19T10:53:41.976Z,47.75
2023-04-19T10:54:41.926Z,46.61
2023-04-19T10:55:41.922Z,46.41
2023-04-19T10:56:41.878Z,46.22
2023-04-19T10:57:41.902Z,45.42
2023-04-19T10:58:41.855Z,45.31
2023-04-19T10:59:42.029Z,45.21
2023-04-19T11:00:41.884Z,44.82
2023-04-19T11:01:41.942Z,45.03
2023-04-19T11:02:41.961Z,46.25
2023-04-19T11:03:42.054Z,45.82
2023-04-19T11:04:41.806Z,45.92
2023-04-19T11:05:41.787Z,45.70
2023-04-19T11:06:41.824Z,46.30
2023-04-19T11:07:41.739Z,46.41
2023-04-19T11:08:41.715Z,45.67
2023-04-19T11:09:41.786Z,45.07
2023-04-19T11:10:41.694Z,44.76
2023-04-19T11:11:41.715Z,44.87
2023-04-19T11:12:41.740Z,45.67
2023-04-19T11:13:41.720Z,44.06
2023-04-19T11:14:41.676Z,43.24
2023-04-19T11:15:41.666Z,43.24
2023-04-19T11:16:45.570Z,42.35
2023-04-19T11:17:41.707Z,42.86
2023-04-19T11:18:41.588Z,43.57
2023-04-19T11:19:41.622Z,42.76
2023-04-19T11:20:41.572Z,42.25
2023-04-19T11:21:41.598Z,42.66
2023-04-19T11:22:41.575Z,42.55
2023-04-19T11:23:41.636Z,43.57
2023-04-19T11:24:41.509Z,43.85
2023-04-19T11:25:41.521Z,42.84
2023-04-19T11:26:41.533Z,43.35
2023-04-19T11:27:41.523Z,42.63
2023-04-19T11:28:41.536Z,41.34
2023-04-19T11:29:41.487Z,41.64
2023-04-19T11:30:41.435Z,41.26
2023-04-19T11:31:41.490Z,42.37
2023-04-19T11:32:41.502Z,42.96
2023-04-19T11:33:41.428Z,43.44
2023-04-19T11:34:41.427Z,42.63
2023-04-19T11:35:41.379Z,42.43
2023-04-19T11:36:41.383Z,42.84
2023-04-19T11:37:41.400Z,43.24
2023-04-19T11:38:41.340Z,42.63
2023-04-19T11:39:41.389Z,40.31
2023-04-19T11:40:41.367Z,40.11
2023-04-19T11:41:41.401Z,39.72
2023-04-19T11:42:41.304Z,41.24
2023-04-19T11:43:41.382Z,41.85
2023-04-19T11:44:41.250Z,41.54
2023-04-19T11:45:41.283Z,40.83
2023-04-19T11:46:41.281Z,41.24
2023-04-19T11:47:41.332Z,41.34
2023-04-19T11:48:41.256Z,40.94
2023-04-19T11:49:41.231Z,40.91
2023-04-19T11:50:41.171Z,40.53
2023-04-19T11:51:41.205Z,40.33
2023-04-19T11:52:41.188Z,41.12
2023-04-19T11:53:41.191Z,42.03
2023-04-19T11:54:41.212Z,40.61
2023-04-19T11:55:41.153Z,40.20
2023-04-19T11:56:41.111Z,39.31
2023-04-19T11:57:41.664Z,39.92
2023-04-19T11:58:41.079Z,40.02
2023-04-19T11:59:41.139Z,40.53
2023-04-19T12:00:41.082Z,41.24
2023-04-19T12:01:41.032Z,40.53
2023-04-19T12:02:41.221Z,41.02
2023-04-19T12:03:41.324Z,41.12
2023-04-19T12:04:41.328Z,41.22
2023-04-19T12:05:41.160Z,41.32
2023-04-19T12:06:40.981Z,41.72
2023-04-19T12:07:40.955Z,42.43
2023-04-19T12:08:40.973Z,42.74
2023-04-19T12:09:40.929Z,41.30
2023-04-19T12:10:40.972Z,40.20
2023-04-19T12:12:36.480Z,40.91
2023-04-19T12:13:36.516Z,41.02
2023-04-19T12:14:36.472Z,39.72
2023-04-19T12:15:36.481Z,40.65
2023-04-19T12:16:36.485Z,40.75
2023-04-19T12:17:40.059Z,40.65
2023-04-19T12:18:37.386Z,41.16
2023-04-19T12:19:36.386Z,40.55
2023-04-19T12:20:36.402Z,39.75
2023-04-19T12:21:36.416Z,39.86
2023-04-19T12:22:36.346Z,39.75
2023-04-19T12:23:36.341Z,39.75
2023-04-19T12:24:36.338Z,39.86
2023-04-19T12:25:36.331Z,39.65
2023-04-19T12:26:36.303Z,40.16
2023-04-19T12:27:36.300Z,39.96
2023-04-19T12:28:36.296Z,40.77
2023-04-19T12:29:36.253Z,41.07
2023-04-19T12:30:36.463Z,39.96
2023-04-19T12:31:36.345Z,39.45
2023-04-19T12:32:36.308Z,39.04
2023-04-19T12:33:36.224Z,39.45
2023-04-19T12:34:36.219Z,38.64
2023-04-19T12:35:36.198Z,39.04
2023-04-19T12:36:36.176Z,39.43
2023-04-19T12:37:36.159Z,39.73
2023-04-19T12:38:36.127Z,39.43
2023-04-19T12:39:36.146Z,39.73
2023-04-19T12:40:36.193Z,39.64
2023-04-19T12:41:36.108Z,40.55
2023-04-19T12:42:36.099Z,40.22
2023-04-19T12:43:36.078Z,40.43
2023-04-19T12:44:36.063Z,39.01
2023-04-19T12:45:36.078Z,38.60
2023-04-19T12:46:36.087Z,38.32
2023-04-19T12:47:36.073Z,38.52
2023-04-19T12:48:36.014Z,38.01
2023-04-19T12:49:35.993Z,38.93
2023-04-19T12:50:36.059Z,38.62
2023-04-19T12:51:35.992Z,38.12
2023-04-19T12:52:35.971Z,38.32
2023-04-19T12:53:35.975Z,37.51
2023-04-19T12:54:35.934Z,37.71
2023-04-19T12:55:35.924Z,37.61
2023-04-19T12:56:35.893Z,38.12
2023-04-19T12:57:35.963Z,38.91
2023-04-19T12:58:35.887Z,38.81
2023-04-19T12:59:35.873Z,38.30